createdAt,value
2018-01-26T00:02:02.437Z,101202.02
2018-01-26T00:04:30.171Z,101208.06
2018-01-26T00:06:57.958Z,101211.04
2018-01-26T00:09:25.662Z,101213.88
2018-01-26T00:11:53.424Z,101216.84
2018-01-26T00:14:21.149Z,101212.67
2018-01-26T00:16:48.872Z,101221.02
2018-01-26T00:19:16.654Z,101221.96
2018-01-26T00:21:44.374Z,101225.20
2018-01-26T00:24:12.108Z,101221.30
2018-01-26T00:26:39.875Z,101221.83
2018-01-26T00:29:07.996Z,101228.97
2018-01-26T00:31:35.751Z,101235.30
2018-01-26T00:34:03.509Z,101238.53
2018-01-26T00:36:31.252Z,101232.59
2018-01-26T00:38:58.952Z,101237.05
2018-01-26T00:41:26.727Z,101238.95
2018-01-26T00:43:54.463Z,101235.70
2018-01-26T00:46:22.185Z,101244.20
2018-01-26T00:48:49.926Z,101245.93
2018-01-26T00:51:17.652Z,101242.16
2018-01-26T00:53:45.348Z,101244.86
2018-01-26T00:56:13.091Z,101246.63
2018-01-26T00:58:40.779Z,101244.44
2018-01-26T01:01:08.482Z,101242.02
2018-01-26T01:03:36.222Z,101241.37
2018-01-26T01:06:03.888Z,101245.13
2018-01-26T01:08:31.899Z,101249.17
2018-01-26T01:10:59.672Z,101242.44
2018-01-26T01:13:27.361Z,101247.69
2018-01-26T01:15:55.073Z,101244.72
2018-01-26T01:18:22.763Z,101235.98
2018-01-26T01:20:50.436Z,101236.91
2018-01-26T01:23:18.201Z,101242.99
2018-01-26T01:25:45.963Z,101233.70
2018-01-26T01:28:13.678Z,101236.26
2018-01-26T01:30:41.429Z,101237.33
2018-01-26T01:33:09.163Z,101235.98
2018-01-26T01:35:36.926Z,101229.91
2018-01-26T01:38:04.680Z,101236.64
2018-01-26T01:40:32.407Z,101240.95
2018-01-26T01:43:00.143Z,101247.83
2018-01-26T01:45:27.915Z,101235.44
2018-01-26T01:47:55.728Z,101241.38
2018-01-26T01:50:23.419Z,101238.27
2018-01-26T01:52:51.178Z,101237.61
2018-01-26T01:55:18.984Z,101236.92
2018-01-26T01:57:46.703Z,101236.81
2018-01-26T02:00:14.383Z,101231.42
2018-01-26T02:02:42.382Z,101231.28
2018-01-26T02:05:10.681Z,101235.05
2018-01-26T02:07:38.369Z,101234.63
2018-01-26T02:10:06.078Z,101233.97
2018-01-26T02:12:34.520Z,101247.02
2018-01-26T02:15:02.468Z,101238.70
2018-01-26T02:17:30.670Z,101244.36
2018-01-26T02:19:58.391Z,101243.66
2018-01-26T02:22:26.120Z,101245.42
2018-01-26T02:24:54.142Z,101236.79
2018-01-26T02:27:21.896Z,101240.02
2018-01-26T02:29:49.583Z,101241.78
2018-01-26T02:32:17.429Z,101251.20
2018-01-26T02:34:45.203Z,101254.81
2018-01-26T02:37:12.967Z,101258.46
2018-01-26T02:39:40.711Z,101249.03
2018-01-26T02:42:08.427Z,101240.13
2018-01-26T02:44:36.150Z,101234.77
2018-01-26T02:47:04.160Z,101246.59
2018-01-26T02:49:31.841Z,101247.38
2018-01-26T02:52:00.201Z,101249.55
2018-01-26T02:54:27.955Z,101245.91
2018-01-26T02:56:55.658Z,101251.66
2018-01-26T02:59:23.357Z,101254.21
2018-01-26T03:01:51.134Z,101244.27
2018-01-26T03:04:18.863Z,101243.06
2018-01-26T03:06:46.881Z,101247.61
2018-01-26T03:09:14.640Z,101245.19
2018-01-26T03:11:42.365Z,101255.02
2018-01-26T03:14:10.163Z,101244.25
2018-01-26T03:16:37.924Z,101247.07
2018-01-26T03:19:05.620Z,101254.58
2018-01-26T03:21:33.350Z,101251.09
2018-01-26T03:24:01.129Z,101247.60
2018-01-26T03:26:28.842Z,101247.31
2018-01-26T03:28:56.871Z,101248.79
2018-01-26T03:31:24.621Z,101251.60
2018-01-26T03:33:52.315Z,101250.27
2018-01-26T03:36:20.069Z,101254.56
2018-01-26T03:38:47.834Z,101257.11
2018-01-26T03:41:15.781Z,101260.58
2018-01-26T03:43:43.869Z,101267.98
2018-01-26T03:46:12.174Z,101268.13
2018-01-26T03:48:39.899Z,101269.19
2018-01-26T03:51:07.600Z,101273.17
2018-01-26T03:53:35.367Z,101277.61
2018-01-26T03:56:03.049Z,101282.70
2018-01-26T03:58:30.816Z,101285.38
2018-01-26T04:00:58.572Z,101283.09
2018-01-26T04:03:26.301Z,101279.19
2018-01-26T04:05:54.143Z,101278.48
2018-01-26T04:08:21.800Z,101290.98
2018-01-26T04:10:49.569Z,101294.61
2018-01-26T04:13:17.515Z,101294.59
2018-01-26T04:15:45.247Z,101289.72
2018-01-26T04:18:13.009Z,101295.77
2018-01-26T04:20:40.730Z,101307.30
2018-01-26T04:23:08.451Z,101311.44
2018-01-26T04:25:36.175Z,101319.23
2018-01-26T04:28:03.956Z,101322.44
2018-01-26T04:30:31.704Z,101331.46
2018-01-26T04:32:59.747Z,101334.28
2018-01-26T04:35:27.479Z,101339.89
2018-01-26T04:37:55.192Z,101338.01
2018-01-26T04:40:22.937Z,101333.70
2018-01-26T04:42:50.680Z,101332.20
2018-01-26T04:45:18.334Z,101337.55
2018-01-26T04:47:46.023Z,101340.09
2018-01-26T04:50:13.740Z,101344.09
2018-01-26T04:52:41.682Z,101351.75
2018-01-26T04:55:09.434Z,101349.98
2018-01-26T04:57:37.144Z,101348.61
2018-01-26T05:00:04.886Z,101354.53
2018-01-26T05:02:32.678Z,101353.03
2018-01-26T05:05:00.377Z,101354.92
2018-01-26T05:07:28.082Z,101353.69
2018-01-26T05:09:55.815Z,101360.66
2018-01-26T05:12:23.537Z,101356.09
2018-01-26T05:14:51.676Z,101358.63
2018-01-26T05:17:19.415Z,101359.30
2018-01-26T05:19:47.168Z,101354.47
2018-01-26T05:22:14.863Z,101353.25
2018-01-26T05:24:42.887Z,101346.80
2018-01-26T05:27:10.612Z,101350.83
2018-01-26T05:29:38.394Z,101352.02
2018-01-26T05:32:06.538Z,101360.88
2018-01-26T05:34:34.241Z,101371.10
2018-01-26T05:37:01.925Z,101373.50
2018-01-26T05:39:30.037Z,101376.61
2018-01-26T05:41:57.702Z,101383.19
2018-01-26T05:44:25.430Z,101384.41
2018-01-26T05:46:53.469Z,101386.67
2018-01-26T05:49:21.142Z,101388.02
2018-01-26T05:51:48.855Z,101391.62
2018-01-26T05:54:16.926Z,101387.22
2018-01-26T05:56:44.647Z,101389.62
2018-01-26T05:59:12.363Z,101395.53
2018-01-26T06:01:40.080Z,101393.91
2018-01-26T06:04:08.190Z,101393.49
2018-01-26T06:06:35.991Z,101403.59
2018-01-26T06:09:03.805Z,101408.97
2018-01-26T06:11:31.505Z,101408.29
2018-01-26T06:13:59.202Z,101413.02
2018-01-26T06:16:26.887Z,101417.72
2018-01-26T06:18:54.892Z,101414.64
2018-01-26T06:21:22.605Z,101422.44
2018-01-26T06:23:50.352Z,101419.91
2018-01-26T06:26:18.135Z,101420.06
2018-01-26T06:28:45.877Z,101425.59
2018-01-26T06:31:13.646Z,101435.94
2018-01-26T06:33:41.677Z,101432.20
2018-01-26T06:36:09.716Z,101444.16
2018-01-26T06:38:37.418Z,101442.55
2018-01-26T06:41:05.077Z,101447.41
2018-01-26T06:43:32.797Z,101447.28
2018-01-26T06:46:00.537Z,101441.94
2018-01-26T06:48:28.673Z,101439.38
2018-01-26T06:50:56.425Z,101444.20
2018-01-26T06:53:24.129Z,101453.35
2018-01-26T06:55:51.810Z,101449.32
2018-01-26T06:58:19.624Z,101453.63
2018-01-26T07:00:47.394Z,101458.46
2018-01-26T07:03:15.339Z,101459.78
2018-01-26T07:05:43.077Z,101473.63
2018-01-26T07:08:10.727Z,101468.54
2018-01-26T07:10:38.439Z,101478.08
2018-01-26T07:13:06.172Z,101478.36
2018-01-26T07:15:34.192Z,101481.84
2018-01-26T07:18:01.928Z,101489.11
2018-01-26T07:20:30.135Z,101487.61
2018-01-26T07:22:57.867Z,101490.81
2018-01-26T07:25:25.616Z,101486.00
2018-01-26T07:27:53.343Z,101488.02
2018-01-26T07:30:21.082Z,101491.13
2018-01-26T07:32:48.865Z,101486.80
2018-01-26T07:35:16.556Z,101495.16
2018-01-26T07:37:44.275Z,101494.58
2018-01-26T07:40:12.003Z,101500.78
2018-01-26T07:42:39.695Z,101503.63
2018-01-26T07:45:09.415Z,101503.37
2018-01-26T07:47:37.107Z,101510.75
2018-01-26T07:50:10.359Z,101511.43
2018-01-26T07:52:38.029Z,101517.47
2018-01-26T07:55:05.761Z,101523.68
2018-01-26T07:57:33.874Z,101530.27
2018-01-26T08:00:01.586Z,101537.66
2018-01-26T08:02:29.381Z,101540.34
2018-01-26T08:04:57.052Z,101555.28
2018-01-26T08:07:24.847Z,101551.41
2018-01-26T08:09:52.524Z,101561.06
2018-01-26T08:12:20.235Z,101562.00
2018-01-26T08:14:47.956Z,101563.75
2018-01-26T08:17:15.667Z,101560.68
2018-01-26T08:19:43.395Z,101561.77
2018-01-26T08:22:11.414Z,101574.53
2018-01-26T08:24:39.156Z,101577.62
2018-01-26T08:27:06.921Z,101581.95
2018-01-26T08:29:34.610Z,101591.52
2018-01-26T08:32:02.686Z,101600.41
2018-01-26T08:34:30.967Z,101606.06
2018-01-26T08:36:59.045Z,101602.99
2018-01-26T08:39:26.802Z,101606.77
2018-01-26T08:41:54.475Z,101606.41
2018-01-26T08:44:22.162Z,101613.16
2018-01-26T08:46:50.192Z,101614.24
2018-01-26T08:49:17.860Z,101614.78
2018-01-26T08:51:45.476Z,101616.16
2018-01-26T08:54:13.454Z,101622.75
2018-01-26T08:56:41.460Z,101627.20
2018-01-26T08:59:09.134Z,101619.80
2018-01-26T09:01:36.857Z,101624.38
2018-01-26T09:04:04.668Z,101630.45
2018-01-26T09:06:32.379Z,101629.14
2018-01-26T09:09:00.056Z,101631.41
2018-01-26T09:11:27.777Z,101631.55
2018-01-26T09:13:55.505Z,101632.31
2018-01-26T09:16:23.222Z,101644.67
2018-01-26T09:18:50.931Z,101651.27
2018-01-26T09:21:18.710Z,101650.72
2018-01-26T09:23:46.675Z,101652.33
2018-01-26T09:26:14.457Z,101657.31
2018-01-26T09:28:42.150Z,101668.61
2018-01-26T09:31:09.876Z,101673.50
2018-01-26T09:33:37.623Z,101670.72
2018-01-26T09:36:05.263Z,101671.67
2018-01-26T09:38:33.181Z,101680.16
2018-01-26T09:41:00.861Z,101680.28
2018-01-26T09:43:28.994Z,101684.37
2018-01-26T09:45:56.725Z,101690.08
2018-01-26T09:48:24.402Z,101691.03
2018-01-26T09:50:52.097Z,101685.97
2018-01-26T09:53:19.787Z,101688.55
2018-01-26T09:55:47.497Z,101692.75
2018-01-26T09:58:15.195Z,101696.39
2018-01-26T10:00:42.948Z,101696.84
2018-01-26T10:03:10.592Z,101713.36
2018-01-26T10:05:38.306Z,101713.88
2018-01-26T10:08:05.992Z,101719.28
2018-01-26T10:10:33.623Z,101711.24
2018-01-26T10:13:01.351Z,101723.64
2018-01-26T10:15:29.416Z,101726.81
2018-01-26T10:17:57.083Z,101726.01
2018-01-26T10:20:25.057Z,101717.52
2018-01-26T10:22:52.815Z,101730.20
2018-01-26T10:25:20.499Z,101729.30
2018-01-26T10:27:48.205Z,101728.69
2018-01-26T10:30:15.940Z,101721.41
2018-01-26T10:32:43.590Z,101728.81
2018-01-26T10:35:11.836Z,101729.90
2018-01-26T10:37:39.910Z,101739.00
2018-01-26T10:40:07.985Z,101751.37
2018-01-26T10:42:36.351Z,101745.95
2018-01-26T10:45:04.081Z,101739.98
2018-01-26T10:47:31.789Z,101746.86
2018-01-26T10:49:59.587Z,101744.48
2018-01-26T10:52:27.319Z,101748.00
2018-01-26T10:54:55.040Z,101742.36
2018-01-26T10:57:22.993Z,101752.45
2018-01-26T10:59:50.773Z,101746.46
2018-01-26T11:02:18.497Z,101745.14
2018-01-26T11:04:46.288Z,101742.77
2018-01-26T11:07:13.974Z,101746.03
2018-01-26T11:09:41.722Z,101742.66
2018-01-26T11:12:09.447Z,101750.06
2018-01-26T11:14:37.113Z,101752.34
2018-01-26T11:17:05.633Z,101749.13
2018-01-26T11:19:33.413Z,101751.05
2018-01-26T11:22:01.033Z,101752.78
2018-01-26T11:24:28.712Z,101758.16
2018-01-26T11:26:56.547Z,101757.45
2018-01-26T11:29:24.213Z,101763.80
2018-01-26T11:31:51.833Z,101765.30
2018-01-26T11:34:19.614Z,101772.58
2018-01-26T11:36:47.309Z,101782.92
2018-01-26T11:39:14.933Z,101782.70
2018-01-26T11:41:42.580Z,101781.92
2018-01-26T11:44:10.272Z,101785.00
2018-01-26T11:46:37.939Z,101787.05
2018-01-26T11:49:05.606Z,101792.04
2018-01-26T11:51:33.251Z,101792.45
2018-01-26T11:54:00.887Z,101786.97
2018-01-26T11:56:28.533Z,101802.34
2018-01-26T11:58:56.174Z,101796.98
2018-01-26T12:01:24.323Z,101799.32
2018-01-26T12:03:52.031Z,101805.09
2018-01-26T12:06:19.746Z,101810.48
2018-01-26T12:08:47.719Z,101809.80
2018-01-26T12:11:15.680Z,101806.31
2018-01-26T12:13:43.386Z,101806.34
2018-01-26T12:16:11.001Z,101800.69
2018-01-26T12:18:38.698Z,101803.67
2018-01-26T12:21:06.954Z,101807.03
2018-01-26T12:23:34.596Z,101812.83
2018-01-26T12:26:02.398Z,101829.82
2018-01-26T12:28:30.138Z,101821.61
2018-01-26T12:30:57.979Z,101825.11
2018-01-26T12:33:25.634Z,101827.18
2018-01-26T12:35:53.292Z,101824.90
2018-01-26T12:38:20.982Z,101830.44
2018-01-26T12:40:48.726Z,101837.61
2018-01-26T12:43:16.413Z,101832.00
2018-01-26T12:45:49.235Z,101838.44
2018-01-26T12:48:16.904Z,101841.47
2018-01-26T12:50:44.648Z,101839.73
2018-01-26T12:53:12.443Z,101844.48
2018-01-26T12:55:40.198Z,101843.25
2018-01-26T12:58:08.146Z,101850.02
2018-01-26T13:00:35.805Z,101841.94
2018-01-26T13:03:03.553Z,101843.86
2018-01-26T13:05:31.208Z,101850.48
2018-01-26T13:07:58.963Z,101852.12
2018-01-26T13:10:26.637Z,101849.42
2018-01-26T13:12:54.322Z,101852.66
2018-01-26T13:15:22.038Z,101852.66
2018-01-26T13:17:49.629Z,101848.13
2018-01-26T13:20:17.224Z,101840.98
2018-01-26T13:22:44.950Z,101845.02
2018-01-26T13:25:12.657Z,101847.71
2018-01-26T13:27:40.803Z,101855.80
2018-01-26T13:30:08.519Z,101859.58
2018-01-26T13:32:36.194Z,101859.98
2018-01-26T13:35:04.217Z,101857.30
2018-01-26T13:37:32.063Z,101864.83
2018-01-26T13:39:59.747Z,101861.63
2018-01-26T13:42:27.464Z,101860.81
2018-01-26T13:44:55.763Z,101860.79
2018-01-26T13:47:23.520Z,101866.75
2018-01-26T13:49:51.607Z,101864.21
2018-01-26T13:52:19.275Z,101863.66
2018-01-26T13:54:47.022Z,101867.86
2018-01-26T13:57:15.656Z,101871.91
2018-01-26T13:59:43.422Z,101877.98
2018-01-26T14:02:11.296Z,101879.20
2018-01-26T14:04:38.942Z,101880.06
2018-01-26T14:07:06.617Z,101881.55
2018-01-26T14:09:34.362Z,101883.61
2018-01-26T14:12:02.133Z,101880.10
2018-01-26T14:14:29.844Z,101882.69
2018-01-26T14:16:57.590Z,101892.13
2018-01-26T14:19:25.307Z,101899.92
2018-01-26T14:21:53.043Z,101895.19
2018-01-26T14:27:02.609Z,101901.81
2018-01-26T14:29:30.471Z,101910.47
2018-01-26T14:31:58.177Z,101914.80
2018-01-26T14:34:25.974Z,101917.06
2018-01-26T14:36:53.711Z,101918.95
2018-01-26T14:39:21.416Z,101926.17
2018-01-26T14:41:49.135Z,101925.25
2018-01-26T14:44:16.876Z,101926.46
2018-01-26T14:46:44.636Z,101931.46
2018-01-26T14:49:12.444Z,101942.55
2018-01-26T14:51:40.989Z,101951.19
2018-01-26T14:54:08.654Z,101946.18
2018-01-26T14:56:36.354Z,101952.27
2018-01-26T14:59:04.096Z,101951.21
2018-01-26T15:01:31.884Z,101963.23
2018-01-26T15:03:59.612Z,101967.02
2018-01-26T15:06:27.303Z,101965.83
2018-01-26T15:08:55.071Z,101971.91
2018-01-26T15:11:22.704Z,101972.36
2018-01-26T15:13:50.380Z,101985.45
2018-01-26T15:16:18.113Z,101984.52
2018-01-26T15:18:45.951Z,101988.20
2018-01-26T15:21:13.686Z,101991.56
2018-01-26T15:23:41.453Z,101989.70
2018-01-26T15:26:09.155Z,101996.83
2018-01-26T15:28:36.892Z,101996.18
2018-01-26T15:31:04.568Z,102004.27
2018-01-26T15:33:32.287Z,102003.44
2018-01-26T15:36:00.004Z,102007.64
2018-01-26T15:38:27.701Z,102014.12
2018-01-26T15:40:55.822Z,102017.08
2018-01-26T15:43:23.446Z,102018.16
2018-01-26T15:45:51.095Z,102024.39
2018-01-26T15:48:18.838Z,102021.95
2018-01-26T15:50:46.603Z,102026.25
2018-01-26T15:53:14.391Z,102027.98
2018-01-26T15:55:42.066Z,102024.88
2018-01-26T15:58:09.721Z,102026.37
2018-01-26T16:00:37.574Z,102025.32
2018-01-26T16:03:05.222Z,102018.30
2018-01-26T16:05:32.905Z,102033.28
2018-01-26T16:08:00.620Z,102041.53
2018-01-26T16:10:28.299Z,102038.41
2018-01-26T16:12:56.392Z,102044.48
2018-01-26T16:15:24.064Z,102044.56
2018-01-26T16:17:52.078Z,102048.60
2018-01-26T16:20:19.782Z,102052.78
2018-01-26T16:22:47.556Z,102051.30
2018-01-26T16:25:15.266Z,102054.41
2018-01-26T16:27:42.920Z,102058.71
2018-01-26T16:30:10.603Z,102061.83
2018-01-26T16:32:38.619Z,102070.59
2018-01-26T16:35:06.318Z,102074.34
2018-01-26T16:37:34.026Z,102078.52
2018-01-26T16:40:01.730Z,102086.16
2018-01-26T16:42:29.443Z,102087.64
2018-01-26T16:44:57.224Z,102088.98
2018-01-26T16:47:24.880Z,102097.75
2018-01-26T16:49:52.599Z,102102.23
2018-01-26T16:52:20.282Z,102106.16
2018-01-26T16:54:47.933Z,102108.05
2018-01-26T16:57:15.620Z,102113.44
2018-01-26T16:59:43.253Z,102116.11
2018-01-26T17:02:10.878Z,102122.69
2018-01-26T17:04:38.541Z,102128.63
2018-01-26T17:07:06.329Z,102139.28
2018-01-26T17:09:34.106Z,102138.41
2018-01-26T17:12:01.837Z,102141.11
2018-01-26T17:14:29.579Z,102144.52
2018-01-26T17:16:57.892Z,102146.53
2018-01-26T17:19:25.733Z,102158.92
2018-01-26T17:21:53.493Z,102155.01
2018-01-26T17:24:21.278Z,102160.66
2018-01-26T17:26:49.156Z,102157.70
2018-01-26T17:29:16.914Z,102151.34
2018-01-26T17:31:45.068Z,102167.14
2018-01-26T17:34:12.744Z,102170.00
2018-01-26T17:36:40.428Z,102174.05
2018-01-26T17:39:08.168Z,102174.84
2018-01-26T17:41:36.160Z,102179.86
2018-01-26T17:44:03.906Z,102184.70
2018-01-26T17:46:31.587Z,102186.59
2018-01-26T17:48:59.543Z,102190.51
2018-01-26T17:51:27.196Z,102194.14
2018-01-26T17:53:57.867Z,102187.52
2018-01-26T17:56:25.624Z,102192.34
2018-01-26T17:58:53.329Z,102198.69
2018-01-26T18:01:20.984Z,102202.87
2018-01-26T18:03:48.844Z,102205.05
2018-01-26T18:06:16.649Z,102206.81
2018-01-26T18:08:44.373Z,102203.58
2018-01-26T18:11:12.041Z,102205.72
2018-01-26T18:13:39.893Z,102213.30
2018-01-26T18:16:07.609Z,102211.95
2018-01-26T18:18:37.134Z,102215.03
2018-01-26T18:21:04.879Z,102210.48
2018-01-26T18:23:32.541Z,102221.27
2018-01-26T18:26:01.155Z,102216.13
2018-01-26T18:28:28.827Z,102217.18
2018-01-26T18:30:56.558Z,102216.09
2018-01-26T18:33:26.075Z,102226.87
2018-01-26T18:35:54.325Z,102234.70
2018-01-26T18:38:22.690Z,102232.42
2018-01-26T18:40:51.212Z,102233.65
2018-01-26T18:43:18.938Z,102230.41
2018-01-26T18:45:47.089Z,102235.67
2018-01-26T18:48:15.252Z,102254.13
2018-01-26T18:50:42.940Z,102254.84
2018-01-26T18:53:11.265Z,102263.34
2018-01-26T18:55:40.050Z,102264.53
2018-01-26T18:58:07.702Z,102262.89
2018-01-26T19:00:35.370Z,102266.52
2018-01-26T19:03:03.070Z,102271.75
2018-01-26T19:05:31.704Z,102276.33
2018-01-26T19:07:59.369Z,102275.91
2018-01-26T19:10:27.854Z,102278.23
2018-01-26T19:12:55.550Z,102277.81
2018-01-26T19:15:23.198Z,102279.16
2018-01-26T19:17:53.893Z,102281.81
2018-01-26T19:20:21.929Z,102285.86
2018-01-26T19:22:49.577Z,102288.55
2018-01-26T19:25:17.246Z,102284.93
2018-01-26T19:27:44.956Z,102286.27
2018-01-26T19:30:12.714Z,102286.41
2018-01-26T19:32:40.379Z,102293.14
2018-01-26T19:35:08.056Z,102295.30
2018-01-26T19:37:35.735Z,102304.61
2018-01-26T19:40:03.616Z,102306.08
2018-01-26T19:42:31.380Z,102309.70
2018-01-26T19:44:59.057Z,102314.45
2018-01-26T19:47:27.087Z,102313.75
2018-01-26T19:49:54.772Z,102315.22
2018-01-26T19:52:22.440Z,102307.27
2018-01-26T19:54:50.483Z,102307.05
2018-01-26T19:57:18.137Z,102312.41
2018-01-26T19:59:45.823Z,102317.50
2018-01-26T20:02:13.543Z,102329.58
2018-01-26T20:04:46.812Z,102333.05
2018-01-26T20:07:30.197Z,102333.55
2018-01-26T20:09:58.277Z,102329.33
2018-01-26T20:12:26.055Z,102339.70
2018-01-26T20:14:53.763Z,102342.25
2018-01-26T20:17:21.407Z,102357.30
2018-01-26T20:19:49.067Z,102356.20
2018-01-26T20:22:16.781Z,102366.68
2018-01-26T20:24:44.403Z,102368.86
2018-01-26T20:27:12.099Z,102378.00
2018-01-26T20:29:39.832Z,102383.69
2018-01-26T20:32:07.549Z,102384.62
2018-01-26T20:34:35.290Z,102391.27
2018-01-26T20:37:03.024Z,102389.42
2018-01-26T20:39:30.827Z,102394.95
2018-01-26T20:41:58.561Z,102399.95
2018-01-26T20:44:26.299Z,102406.81
2018-01-26T20:46:54.060Z,102411.11
2018-01-26T20:49:21.856Z,102418.19
2018-01-26T20:51:49.613Z,102415.92
2018-01-26T20:54:17.290Z,102424.52
2018-01-26T20:56:45.023Z,102428.17
2018-01-26T20:59:13.061Z,102432.89
2018-01-26T21:01:40.774Z,102435.59
2018-01-26T21:04:08.399Z,102436.13
2018-01-26T21:06:36.116Z,102437.87
2018-01-26T21:09:04.009Z,102435.88
2018-01-26T21:11:31.719Z,102436.98
2018-01-26T21:13:59.618Z,102436.69
2018-01-26T21:16:27.421Z,102439.27
2018-01-26T21:18:55.125Z,102453.70
2018-01-26T21:21:23.076Z,102451.00
2018-01-26T21:23:50.784Z,102447.22
2018-01-26T21:26:18.490Z,102447.64
2018-01-26T21:28:46.180Z,102443.84
2018-01-26T21:31:13.839Z,102448.70
2018-01-26T21:33:41.866Z,102453.45
2018-01-26T21:36:09.552Z,102458.01
2018-01-26T21:38:37.152Z,102460.83
2018-01-26T21:41:05.128Z,102465.28
2018-01-26T21:43:32.796Z,102459.72
2018-01-26T21:46:00.474Z,102459.97
2018-01-26T21:48:28.161Z,102460.52
2018-01-26T21:50:56.124Z,102463.21
2018-01-26T21:53:23.759Z,102464.44
2018-01-26T21:55:51.379Z,102464.95
2018-01-26T21:58:19.076Z,102464.69
2018-01-26T22:00:46.856Z,102470.75
2018-01-26T22:03:14.572Z,102475.46
2018-01-26T22:05:42.243Z,102474.50
2018-01-26T22:08:09.947Z,102483.30
2018-01-26T22:10:38.075Z,102480.61
2018-01-26T22:13:05.740Z,102491.39
2018-01-26T22:15:33.684Z,102491.39
2018-01-26T22:18:01.469Z,102495.81
2018-01-26T22:20:29.504Z,102493.12
2018-01-26T22:22:57.140Z,102509.30
2018-01-26T22:25:24.862Z,102503.91
2018-01-26T22:27:52.501Z,102514.17
2018-01-26T22:30:20.193Z,102519.14
2018-01-26T22:32:47.873Z,102522.09
2018-01-26T22:35:15.561Z,102513.88
2018-01-26T22:37:43.654Z,102518.64
2018-01-26T22:40:11.355Z,102522.55
2018-01-26T22:42:39.062Z,102526.98
2018-01-26T22:45:06.715Z,102536.03
2018-01-26T22:47:34.425Z,102537.50
2018-01-26T22:50:02.659Z,102536.97
2018-01-26T22:52:30.322Z,102539.12
2018-01-26T22:54:57.978Z,102541.01
2018-01-26T22:57:26.717Z,102547.75
2018-01-26T22:59:54.628Z,102544.00
2018-01-26T23:02:22.292Z,102539.83
2018-01-26T23:04:49.941Z,102536.72
2018-01-26T23:07:17.569Z,102548.43
2018-01-26T23:09:45.514Z,102548.97
2018-01-26T23:12:13.195Z,102549.64
2018-01-26T23:14:40.839Z,102547.45
2018-01-26T23:17:08.483Z,102562.16
2018-01-26T23:19:36.129Z,102561.86
2018-01-26T23:22:03.828Z,102566.86
2018-01-26T23:24:31.511Z,102566.02
2018-01-26T23:26:59.192Z,102571.15
2018-01-26T23:29:26.854Z,102570.43
2018-01-26T23:31:54.567Z,102582.05
2018-01-26T23:34:22.663Z,102578.52
2018-01-26T23:36:50.331Z,102579.69
2018-01-26T23:39:18.302Z,102578.59
2018-01-26T23:41:45.983Z,102581.41
2018-01-26T23:44:13.790Z,102580.59
2018-01-26T23:46:41.665Z,102579.08
2018-01-26T23:49:09.375Z,102588.45
2018-01-26T23:51:37.058Z,102580.86
2018-01-26T23:54:04.693Z,102573.83
2018-01-26T23:56:32.416Z,102587.00
2018-01-26T23:59:00.083Z,102582.66
